Terminal Aerodrome Forecast
Issued by NWS Albany, NY

Home | Current Version | Previous Version | Text Only | Print | Product List | Glossary On
Versions: 1 2 3 4 5 6 7 8 9 10 11 12 13 14 15 16 17 18 19 20 21 22 23 24 25 26 27 28
000
FTUS41 KALY 280003 AAA
TAFALB
TAF AMD
KALB 280003Z 2800/2824 16011KT P6SM BKN030 BKN260
     FM280100 16008KT P6SM BKN030
     FM280500 16008KT 6SM BR VCTS BKN150CB
     FM280700 17007KT 6SM BR VCSH OVC060
     FM280900 18007KT P6SM OVC060 PROB30 2809/2811 4SM -SHRA OVC040
     FM281100 23006KT P6SM BKN050 PROB30 2811/2812 4SM -SHRA OVC025
     FM281400 27007KT P6SM SCT200=

USA.gov is the U.S. government's official web portal to all federal, state and local government web resources and services.